createdAt,value
2023-06-10T00:01:59.283Z,5.00
2023-06-10T00:04:48.862Z,5.30
2023-06-10T00:07:39.174Z,5.80
2023-06-10T00:10:27.873Z,6.00
2023-06-10T00:13:18.008Z,6.30
2023-06-10T00:16:07.004Z,7.00
2023-06-10T00:19:02.321Z,6.70
2023-06-10T00:21:53.400Z,6.50
2023-06-10T00:24:43.975Z,6.40
2023-06-10T00:27:37.036Z,5.60
2023-06-10T00:30:28.476Z,4.90
2023-06-10T00:33:18.605Z,4.40
2023-06-10T00:36:09.020Z,3.70
2023-06-10T00:38:58.462Z,3.00
2023-06-10T00:41:47.946Z,2.70
2023-06-10T00:44:37.623Z,3.00
2023-06-10T00:47:28.930Z,3.00
2023-06-10T00:50:18.728Z,3.20
2023-06-10T00:53:08.642Z,3.20
2023-06-10T00:55:59.025Z,4.00
2023-06-10T00:58:50.432Z,4.30
2023-06-10T01:01:41.289Z,4.20
2023-06-10T01:04:32.720Z,4.00
2023-06-10T01:07:29.214Z,4.40
2023-06-10T01:10:26.751Z,4.30
2023-06-10T01:13:18.249Z,4.10
2023-06-10T01:16:09.295Z,4.40
2023-06-10T01:18:59.540Z,4.70
2023-06-10T01:21:51.325Z,4.60
2023-06-10T01:24:41.951Z,4.60
2023-06-10T01:27:41.287Z,5.10
2023-06-10T01:30:35.025Z,5.60
2023-06-10T01:33:31.293Z,5.60
2023-06-10T01:36:22.508Z,5.80
2023-06-10T01:39:15.034Z,5.60
2023-06-10T01:42:07.921Z,5.60
2023-06-10T01:44:58.125Z,5.80
2023-06-10T01:47:48.420Z,5.80
2023-06-10T01:50:38.553Z,5.90
2023-06-10T01:53:28.996Z,5.70
2023-06-10T01:56:21.474Z,5.60
2023-06-10T01:59:11.828Z,5.00
2023-06-10T02:02:02.282Z,4.50
2023-06-10T02:04:52.118Z,4.00
2023-06-10T02:07:41.891Z,4.10
2023-06-10T02:10:32.382Z,3.10
2023-06-10T02:13:24.424Z,2.80
2023-06-10T02:16:15.879Z,2.80
2023-06-10T02:19:08.530Z,2.80
2023-06-10T02:21:59.489Z,3.00
2023-06-10T02:24:50.118Z,3.60
2023-06-10T02:27:40.857Z,4.30
2023-06-10T02:30:32.517Z,4.50
2023-06-10T02:33:23.828Z,4.90
2023-06-10T02:36:15.123Z,5.20
2023-06-10T02:39:06.532Z,5.50
2023-06-10T02:41:57.209Z,6.00
2023-06-10T02:44:47.936Z,6.50
2023-06-10T02:47:42.942Z,6.90
2023-06-10T02:50:33.541Z,7.20
2023-06-10T02:53:27.790Z,7.30
2023-06-10T02:56:20.754Z,7.60
2023-06-10T02:59:25.329Z,7.00
2023-06-10T03:02:16.574Z,6.80
2023-06-10T03:05:12.283Z,7.00
2023-06-10T03:08:09.179Z,7.20
2023-06-10T03:11:02.056Z,7.10
2023-06-10T03:13:52.671Z,6.90
2023-06-10T03:16:44.620Z,6.90
2023-06-10T03:19:57.126Z,7.20
2023-06-10T03:22:55.635Z,7.70
2023-06-10T03:29:38.734Z,8.40
2023-06-10T03:32:52.539Z,8.60
2023-06-10T03:35:48.133Z,9.00
2023-06-10T03:38:50.948Z,9.20
2023-06-10T03:41:45.793Z,9.60
2023-06-10T03:48:02.054Z,9.60
2023-06-10T03:50:54.835Z,9.90
2023-06-10T03:53:49.617Z,10.10
2023-06-10T03:56:42.131Z,10.40
2023-06-10T03:59:33.441Z,10.50
2023-06-10T04:02:25.923Z,10.70
2023-06-10T04:08:25.669Z,11.20
2023-06-10T04:11:19.678Z,12.00
2023-06-10T04:14:30.761Z,12.10
2023-06-10T04:17:30.560Z,12.40
2023-06-10T04:20:31.516Z,12.80
2023-06-10T04:23:23.541Z,12.60
2023-06-10T04:26:15.163Z,12.80
2023-06-10T04:32:18.173Z,13.20
2023-06-10T04:35:10.576Z,12.90
2023-06-10T04:38:01.683Z,13.10
2023-06-10T04:40:51.792Z,12.80
2023-06-10T04:43:42.706Z,12.40
2023-06-10T04:46:34.995Z,12.20
2023-06-10T04:49:25.465Z,12.30
2023-06-10T04:52:19.152Z,12.60
2023-06-10T04:55:10.899Z,12.50
2023-06-10T04:58:01.560Z,13.20
2023-06-10T05:00:52.209Z,13.10
2023-06-10T05:03:44.761Z,12.80
2023-06-10T05:06:35.597Z,12.40
2023-06-10T05:09:26.282Z,11.80
2023-06-10T05:12:16.787Z,11.90
2023-06-10T05:15:07.948Z,11.40
2023-06-10T05:18:00.925Z,11.40
2023-06-10T05:20:55.460Z,11.50
2023-06-10T05:23:45.677Z,11.30
2023-06-10T05:26:39.093Z,10.90
2023-06-10T05:29:29.426Z,10.70
2023-06-10T05:32:19.812Z,10.30
2023-06-10T05:35:11.221Z,10.20
2023-06-10T05:38:03.959Z,10.30
2023-06-10T05:40:54.008Z,9.60
2023-06-10T05:43:43.585Z,8.80
2023-06-10T05:46:32.894Z,9.20
2023-06-10T05:49:22.533Z,8.20
2023-06-10T05:52:11.390Z,6.80
2023-06-10T05:55:01.712Z,5.90
2023-06-10T05:58:00.404Z,4.60
2023-06-10T06:00:49.490Z,2.80
2023-06-10T06:03:40.128Z,3.00
2023-06-10T06:06:31.032Z,1.90
2023-06-10T06:09:20.773Z,1.40
2023-06-10T06:12:12.217Z,2.10
2023-06-10T06:15:01.119Z,1.10
2023-06-10T06:17:50.122Z,1.40
2023-06-10T06:20:39.056Z,1.00
2023-06-10T06:23:28.161Z,1.00
2023-06-10T06:26:17.360Z,1.00
2023-06-10T06:29:08.006Z,1.00
2023-06-10T06:31:57.073Z,1.00
2023-06-10T06:34:46.358Z,1.00
2023-06-10T06:37:35.842Z,1.00
2023-06-10T06:40:24.701Z,1.00
2023-06-10T06:43:13.499Z,1.00
2023-06-10T06:46:05.534Z,1.00
2023-06-10T06:48:54.515Z,1.00
2023-06-10T06:51:43.942Z,1.00
2023-06-10T06:54:33.275Z,1.00
2023-06-10T06:57:22.097Z,1.00
2023-06-10T07:00:11.676Z,1.00
2023-06-10T07:03:02.144Z,1.00
2023-06-10T07:05:51.227Z,1.00
2023-06-10T07:08:39.949Z,1.00
2023-06-10T07:11:28.655Z,1.00
2023-06-10T07:14:17.426Z,1.00
2023-06-10T07:17:06.354Z,1.00
2023-06-10T07:19:58.634Z,1.00
2023-06-10T07:22:47.366Z,1.00
2023-06-10T07:25:36.414Z,1.00
2023-06-10T07:28:25.232Z,1.00
2023-06-10T07:31:14.365Z,1.00
2023-06-10T07:34:03.151Z,1.00
2023-06-10T07:42:16.995Z,1.00
2023-06-10T07:45:07.191Z,1.00
2023-06-10T07:47:57.128Z,1.00
2023-06-10T07:50:45.960Z,1.00
2023-06-10T07:53:34.682Z,1.00
2023-06-10T07:56:23.591Z,1.00
2023-06-10T07:59:13.788Z,1.00
2023-06-10T08:02:02.580Z,1.00
2023-06-10T08:04:51.468Z,1.00
2023-06-10T08:07:41.183Z,1.00
2023-06-10T08:10:29.998Z,1.00
2023-06-10T08:13:18.870Z,1.00
2023-06-10T08:16:09.027Z,1.00
2023-06-10T08:18:57.778Z,1.00
2023-06-10T08:21:46.462Z,1.00
2023-06-10T08:24:35.773Z,1.00
2023-06-10T08:27:24.495Z,1.00
2023-06-10T08:30:14.445Z,1.00
2023-06-10T08:33:05.005Z,1.00
2023-06-10T08:35:53.758Z,1.00
2023-06-10T08:38:42.669Z,1.00
2023-06-10T08:41:35.431Z,1.00
2023-06-10T08:44:31.185Z,1.00
2023-06-10T08:47:20.260Z,1.00
2023-06-10T08:50:12.864Z,1.00
2023-06-10T08:53:03.024Z,1.00
2023-06-10T08:55:54.256Z,1.00
2023-06-10T08:58:44.373Z,1.00
2023-06-10T09:01:33.380Z,1.00
2023-06-10T09:04:22.532Z,1.00
2023-06-10T09:07:13.174Z,1.00
2023-06-10T09:10:04.249Z,1.00
2023-06-10T09:12:52.981Z,1.00
2023-06-10T09:15:43.125Z,1.00
2023-06-10T09:18:33.177Z,1.00
2023-06-10T09:21:21.953Z,1.00
2023-06-10T09:24:12.343Z,1.00
2023-06-10T09:27:08.475Z,1.00
2023-06-10T09:29:59.052Z,1.00
2023-06-10T09:32:48.718Z,1.00
2023-06-10T09:35:37.846Z,1.00
2023-06-10T09:38:32.969Z,1.00
2023-06-10T09:41:23.185Z,1.00
2023-06-10T09:44:15.568Z,1.00
2023-06-10T09:47:04.526Z,1.00
2023-06-10T09:49:54.686Z,1.00
2023-06-10T09:52:43.444Z,1.00
2023-06-10T09:55:35.769Z,1.00
2023-06-10T09:58:38.764Z,1.00
2023-06-10T10:01:27.591Z,1.00
2023-06-10T10:04:25.322Z,1.00
2023-06-10T10:07:14.984Z,1.00
2023-06-10T10:10:04.042Z,1.00
2023-06-10T10:12:58.290Z,1.00
2023-06-10T10:15:49.624Z,1.00
2023-06-10T10:18:40.904Z,1.00
2023-06-10T10:21:34.455Z,1.00
2023-06-10T10:24:25.637Z,1.00
2023-06-10T10:27:20.225Z,1.00
2023-06-10T10:30:12.866Z,1.00
2023-06-10T10:33:10.418Z,1.00
2023-06-10T10:36:00.872Z,1.00
2023-06-10T10:38:52.803Z,1.00
2023-06-10T10:41:42.777Z,1.00
2023-06-10T10:44:32.098Z,1.00
2023-06-10T10:47:24.420Z,1.00
2023-06-10T10:50:20.003Z,1.00
2023-06-10T10:53:08.984Z,1.00
2023-06-10T10:56:08.772Z,1.00
2023-06-10T10:59:06.530Z,1.00
2023-06-10T11:01:55.371Z,1.00
2023-06-10T11:04:48.579Z,1.00
2023-06-10T11:07:39.195Z,1.00
2023-06-10T11:10:34.802Z,1.00
2023-06-10T11:13:24.633Z,1.00
2023-06-10T11:16:13.541Z,1.00
2023-06-10T11:19:02.304Z,1.00
2023-06-10T11:22:03.918Z,1.00
2023-06-10T11:24:54.424Z,1.00
2023-06-10T11:27:43.268Z,1.00
2023-06-10T11:30:37.510Z,1.00
2023-06-10T11:33:28.543Z,1.00
2023-06-10T11:36:17.603Z,1.00
2023-06-10T11:39:07.714Z,1.00
2023-06-10T11:41:58.063Z,1.00
2023-06-10T11:44:51.137Z,1.00
2023-06-10T11:47:40.709Z,1.00
2023-06-10T11:50:33.819Z,1.00
2023-06-10T11:53:22.524Z,1.00
2023-06-10T11:56:11.324Z,1.00
2023-06-10T11:59:05.564Z,1.00
2023-06-10T12:01:54.354Z,1.00
2023-06-10T12:04:43.120Z,1.00
2023-06-10T12:07:31.841Z,1.00
2023-06-10T12:10:26.769Z,1.00
2023-06-10T12:13:16.931Z,1.00
2023-06-10T12:16:11.702Z,1.00
2023-06-10T12:19:05.229Z,1.00
2023-06-10T12:21:54.746Z,1.00
2023-06-10T12:24:47.556Z,1.00
2023-06-10T12:27:37.731Z,1.00
2023-06-10T12:30:27.618Z,1.00
2023-06-10T12:33:21.261Z,1.00
2023-06-10T12:36:18.853Z,1.00
2023-06-10T12:39:07.906Z,1.00
2023-06-10T12:41:57.409Z,1.00
2023-06-10T12:44:46.160Z,1.00
2023-06-10T12:47:37.627Z,1.00
2023-06-10T12:50:27.842Z,1.00
2023-06-10T12:53:16.616Z,1.00
2023-06-10T12:56:05.475Z,1.00
2023-06-10T12:58:54.367Z,1.00
2023-06-10T13:01:43.351Z,1.00
2023-06-10T13:04:32.190Z,1.00
2023-06-10T13:07:24.130Z,1.00
2023-06-10T13:10:15.029Z,1.00
2023-06-10T13:13:06.549Z,1.00
2023-06-10T13:15:55.921Z,1.00
2023-06-10T13:18:45.054Z,1.00
2023-06-10T13:21:34.949Z,1.00
2023-06-10T13:24:25.961Z,1.00
2023-06-10T13:27:15.281Z,1.00
2023-06-10T13:30:08.632Z,1.00
2023-06-10T13:32:57.434Z,1.00
2023-06-10T13:35:46.343Z,1.00
2023-06-10T13:38:35.408Z,1.00
2023-06-10T13:41:25.947Z,1.00
2023-06-10T13:44:14.744Z,1.00
2023-06-10T13:47:03.470Z,1.00
2023-06-10T13:49:52.217Z,1.00
2023-06-10T13:52:40.965Z,1.00
2023-06-10T13:55:29.708Z,1.00
2023-06-10T13:58:19.929Z,1.00
2023-06-10T14:01:09.291Z,1.00
2023-06-10T14:03:58.431Z,1.00
2023-06-10T14:06:47.329Z,1.00
2023-06-10T14:09:36.115Z,1.00
2023-06-10T14:12:25.019Z,1.00
2023-06-10T14:15:15.733Z,1.00
2023-06-10T14:18:05.175Z,1.00
2023-06-10T14:20:54.245Z,1.00
2023-06-10T14:23:44.953Z,1.00
2023-06-10T14:26:34.425Z,1.00
2023-06-10T14:29:23.832Z,1.00
2023-06-10T14:32:14.854Z,1.00
2023-06-10T14:35:06.112Z,1.00
2023-06-10T14:37:55.891Z,1.00
2023-06-10T14:40:45.264Z,1.00
2023-06-10T14:43:35.442Z,1.00
2023-06-10T14:46:25.602Z,1.00
2023-06-10T14:49:18.117Z,1.00
2023-06-10T14:52:07.311Z,1.00
2023-06-10T14:54:56.032Z,1.00
2023-06-10T14:57:44.702Z,1.00
2023-06-10T15:00:33.793Z,1.00
2023-06-10T15:03:22.535Z,1.00
2023-06-10T15:06:13.009Z,1.00
2023-06-10T15:09:01.765Z,1.00
2023-06-10T15:11:50.737Z,1.00
2023-06-10T15:14:39.678Z,1.00
2023-06-10T15:17:28.441Z,1.00
2023-06-10T15:20:17.264Z,1.00
2023-06-10T15:23:09.078Z,1.00
2023-06-10T15:25:58.525Z,1.00
2023-06-10T15:28:47.567Z,1.00
2023-06-10T15:31:36.366Z,1.00
2023-06-10T15:34:25.146Z,1.00
2023-06-10T15:37:13.864Z,1.00
2023-06-10T15:40:04.016Z,1.00
2023-06-10T15:42:52.867Z,1.00
2023-06-10T15:45:41.791Z,1.00
2023-06-10T15:48:30.527Z,1.00
2023-06-10T15:51:19.358Z,1.00
2023-06-10T15:54:08.118Z,1.00
2023-06-10T15:56:58.257Z,1.00
2023-06-10T15:59:46.998Z,1.00
2023-06-10T16:02:37.748Z,1.00
2023-06-10T16:05:26.581Z,1.00
2023-06-10T16:08:16.004Z,1.00
2023-06-10T16:11:05.287Z,1.00
2023-06-10T16:13:55.434Z,1.00
2023-06-10T16:16:44.206Z,1.00
2023-06-10T16:19:33.018Z,1.00
2023-06-10T16:22:22.083Z,1.00
2023-06-10T16:25:11.491Z,1.00
2023-06-10T16:28:01.120Z,1.00
2023-06-10T16:30:51.583Z,1.00
2023-06-10T16:33:40.436Z,1.00
2023-06-10T16:36:29.237Z,1.00
2023-06-10T16:39:18.029Z,1.00
2023-06-10T16:42:08.398Z,1.00
2023-06-10T16:44:57.179Z,1.00
2023-06-10T16:47:47.323Z,1.00
2023-06-10T16:50:36.343Z,1.00
2023-06-10T16:53:25.116Z,1.00
2023-06-10T16:56:13.897Z,1.00
2023-06-10T16:59:02.658Z,1.00
2023-06-10T17:01:51.515Z,1.00
2023-06-10T17:04:41.746Z,1.00
2023-06-10T17:07:31.343Z,1.00
2023-06-10T17:10:20.423Z,1.00
2023-06-10T17:13:09.183Z,1.00
2023-06-10T17:15:58.162Z,1.00
2023-06-10T17:18:47.010Z,1.00
2023-06-10T17:21:37.782Z,1.00
2023-06-10T17:24:28.225Z,1.00
2023-06-10T17:27:17.177Z,1.00
2023-06-10T17:30:07.039Z,1.00
2023-06-10T17:32:55.902Z,1.00
2023-06-10T17:35:44.754Z,1.00
2023-06-10T17:38:34.887Z,1.00
2023-06-10T17:41:23.617Z,1.00
2023-06-10T17:44:12.354Z,1.00
2023-06-10T17:47:02.313Z,1.00
2023-06-10T17:49:51.221Z,1.00
2023-06-10T17:52:40.085Z,1.00
2023-06-10T17:55:30.225Z,1.00
2023-06-10T17:58:18.982Z,1.00
2023-06-10T18:01:07.956Z,1.00
2023-06-10T18:03:58.889Z,1.00
2023-06-10T18:06:49.148Z,1.00
2023-06-10T18:09:37.850Z,1.00
2023-06-10T18:12:27.983Z,1.00
2023-06-10T18:15:16.778Z,1.00
2023-06-10T18:18:06.123Z,1.00
2023-06-10T18:20:55.014Z,1.00
2023-06-10T18:23:43.724Z,1.00
2023-06-10T18:26:32.483Z,1.00
2023-06-10T18:29:22.896Z,1.00
2023-06-10T18:32:11.979Z,1.00
2023-06-10T18:35:00.860Z,1.00
2023-06-10T18:37:49.589Z,1.00
2023-06-10T18:40:38.341Z,1.00
2023-06-10T18:43:27.097Z,1.00
2023-06-10T18:46:17.335Z,1.00
2023-06-10T18:49:06.209Z,1.00
2023-06-10T18:51:54.940Z,1.00
2023-06-10T18:54:43.699Z,1.00
2023-06-10T18:57:32.468Z,1.00
2023-06-10T19:00:21.735Z,1.00
2023-06-10T19:03:12.038Z,1.00
2023-06-10T19:06:01.740Z,1.00
2023-06-10T19:08:51.434Z,1.00
2023-06-10T19:11:40.217Z,1.00
2023-06-10T19:14:28.928Z,1.00
2023-06-10T19:17:18.611Z,1.00
2023-06-10T19:20:10.675Z,1.00
2023-06-10T19:22:59.444Z,1.00
2023-06-10T19:25:48.267Z,1.00
2023-06-10T19:28:37.004Z,1.00
2023-06-10T19:31:25.888Z,1.00
2023-06-10T19:34:14.825Z,1.00
2023-06-10T19:37:05.120Z,1.00
2023-06-10T19:39:53.913Z,1.00
2023-06-10T19:42:42.688Z,1.00
2023-06-10T19:45:31.579Z,1.00
2023-06-10T19:48:20.416Z,1.00
2023-06-10T19:51:09.158Z,1.00
2023-06-10T19:53:59.360Z,1.00
2023-06-10T19:56:48.094Z,1.00
2023-06-10T19:59:37.338Z,1.00
2023-06-10T20:02:26.395Z,1.00
2023-06-10T20:05:15.458Z,1.00
2023-06-10T20:08:04.352Z,1.00
2023-06-10T20:10:54.590Z,1.00
2023-06-10T20:13:43.351Z,1.00
2023-06-10T20:16:32.183Z,1.00
2023-06-10T20:19:21.211Z,1.00
2023-06-10T20:22:10.485Z,1.00
2023-06-10T20:24:59.350Z,1.00
2023-06-10T20:27:50.651Z,1.00
2023-06-10T20:30:40.908Z,1.00
2023-06-10T20:33:30.252Z,1.00
2023-06-10T20:36:20.197Z,1.00
2023-06-10T20:39:09.305Z,1.00
2023-06-10T20:41:58.187Z,1.00
2023-06-10T20:44:48.523Z,1.00
2023-06-10T20:47:37.467Z,1.00
2023-06-10T20:50:26.333Z,1.00
2023-06-10T20:53:15.143Z,1.00
2023-06-10T20:56:04.335Z,1.00
2023-06-10T20:58:53.413Z,1.00
2023-06-10T21:01:43.962Z,1.00
2023-06-10T21:04:33.951Z,1.00
2023-06-10T21:07:22.963Z,1.00
2023-06-10T21:10:11.932Z,1.00
2023-06-10T21:13:00.747Z,1.00
2023-06-10T21:15:49.575Z,1.00
2023-06-10T21:18:39.739Z,1.00
2023-06-10T21:21:28.522Z,1.00
2023-06-10T21:24:17.292Z,1.00
2023-06-10T21:27:07.013Z,1.00
2023-06-10T21:29:56.191Z,1.00
2023-06-10T21:32:46.234Z,1.00
2023-06-10T21:35:36.742Z,1.00
2023-06-10T21:38:25.475Z,1.00
2023-06-10T21:41:14.197Z,1.00
2023-06-10T21:44:03.012Z,1.00
2023-06-10T21:46:51.755Z,1.00
2023-06-10T21:49:40.527Z,1.00
2023-06-10T21:52:30.655Z,1.00
2023-06-10T21:55:19.573Z,1.00
2023-06-10T21:58:08.756Z,1.00
2023-06-10T22:00:57.599Z,1.00
2023-06-10T22:03:47.098Z,1.00
2023-06-10T22:06:35.989Z,1.00
2023-06-10T22:09:26.236Z,1.00
2023-06-10T22:12:15.000Z,1.00
2023-06-10T22:15:04.842Z,1.00
2023-06-10T22:17:53.650Z,1.00
2023-06-10T22:20:42.707Z,1.00
2023-06-10T22:23:31.487Z,1.00
2023-06-10T22:26:21.929Z,1.00
2023-06-10T22:29:11.187Z,1.00
2023-06-10T22:31:59.977Z,1.00
2023-06-10T22:34:48.811Z,1.00
2023-06-10T22:37:37.681Z,1.00
2023-06-10T22:40:26.427Z,1.00
2023-06-10T22:43:16.860Z,1.00
2023-06-10T22:46:05.676Z,1.00
2023-06-10T22:48:54.479Z,1.00
2023-06-10T22:51:44.483Z,1.00
2023-06-10T22:54:33.316Z,1.00
2023-06-10T22:57:22.049Z,1.00
2023-06-10T23:00:15.773Z,1.00
2023-06-10T23:03:04.652Z,1.00
2023-06-10T23:05:53.419Z,1.00
2023-06-10T23:08:42.190Z,1.00
2023-06-10T23:11:31.003Z,1.00
2023-06-10T23:14:27.191Z,1.00
2023-06-10T23:17:17.391Z,1.00
2023-06-10T23:20:07.709Z,1.00
2023-06-10T23:22:56.635Z,1.00
2023-06-10T23:25:45.960Z,1.00
2023-06-10T23:28:35.016Z,1.00
2023-06-10T23:31:24.174Z,1.00
2023-06-10T23:34:14.343Z,1.00
2023-06-10T23:37:03.063Z,1.00
2023-06-10T23:39:51.763Z,1.00
2023-06-10T23:42:40.428Z,1.00
2023-06-10T23:45:29.156Z,1.00
2023-06-10T23:48:17.952Z,1.00
2023-06-10T23:51:08.157Z,1.00
2023-06-10T23:53:56.865Z,1.00
2023-06-10T23:56:45.600Z,1.00
2023-06-10T23:59:34.453Z,1.00
